createdAt,value
2019-03-03T00:00:40.364Z,5.72
2019-03-03T00:01:49.983Z,5.73
2019-03-03T00:02:58.014Z,5.73
2019-03-03T00:04:06.149Z,5.75
2019-03-03T00:05:14.326Z,5.75
2019-03-03T00:06:22.295Z,5.77
2019-03-03T00:07:30.371Z,5.78
2019-03-03T00:08:38.361Z,5.81
2019-03-03T00:09:46.665Z,5.81
2019-03-03T00:10:54.665Z,5.83
2019-03-03T00:12:02.805Z,5.84
2019-03-03T00:13:10.825Z,5.84
2019-03-03T00:14:18.640Z,5.82
2019-03-03T00:15:26.636Z,5.82
2019-03-03T00:16:35.114Z,5.83
2019-03-03T00:17:43.662Z,5.83
2019-03-03T00:18:51.738Z,5.84
2019-03-03T00:19:59.814Z,5.84
2019-03-03T00:21:08.078Z,5.85
2019-03-03T00:22:16.044Z,5.86
2019-03-03T00:23:24.186Z,5.88
2019-03-03T00:24:32.233Z,5.89
2019-03-03T00:25:40.457Z,5.88
2019-03-03T00:26:48.691Z,5.87
2019-03-03T00:27:56.756Z,5.86
2019-03-03T00:29:04.776Z,5.86
2019-03-03T00:30:19.133Z,5.84
2019-03-03T00:31:31.542Z,5.85
2019-03-03T00:32:39.954Z,5.86
2019-03-03T00:33:48.566Z,5.86
2019-03-03T00:34:56.752Z,5.87
2019-03-03T00:36:04.905Z,5.88
2019-03-03T00:37:14.608Z,5.89
2019-03-03T00:38:24.540Z,5.91
2019-03-03T00:39:36.961Z,5.93
2019-03-03T00:41:03.570Z,5.95
2019-03-03T00:42:31.070Z,5.95
2019-03-03T00:43:59.052Z,5.95
2019-03-03T00:45:17.029Z,5.95
2019-03-03T00:46:32.916Z,5.95
2019-03-03T00:47:40.823Z,5.95
2019-03-03T00:48:48.512Z,5.95
2019-03-03T00:49:58.482Z,5.95
2019-03-03T00:51:07.230Z,5.93
2019-03-03T00:52:16.868Z,5.87
2019-03-03T00:53:34.150Z,5.82
2019-03-03T00:54:43.932Z,5.72
2019-03-03T00:56:06.091Z,5.68
2019-03-03T00:57:18.689Z,5.67
2019-03-03T00:58:34.115Z,5.69
2019-03-03T00:59:46.827Z,5.70
2019-03-03T01:01:02.559Z,5.72
2019-03-03T01:02:12.157Z,5.74
2019-03-03T01:03:21.619Z,5.78
2019-03-03T01:04:29.424Z,5.77
2019-03-03T01:05:41.428Z,5.78
2019-03-03T01:06:54.142Z,5.77
2019-03-03T01:08:20.008Z,5.77
2019-03-03T01:09:37.764Z,5.76
2019-03-03T01:10:48.098Z,5.74
2019-03-03T01:12:02.030Z,5.73
2019-03-03T01:13:11.592Z,5.72
2019-03-03T01:14:21.386Z,5.72
2019-03-03T01:15:43.351Z,5.71
2019-03-03T01:16:53.451Z,5.70
2019-03-03T01:18:03.134Z,5.69
2019-03-03T01:19:12.827Z,5.67
2019-03-03T01:20:20.418Z,5.67
2019-03-03T01:21:33.056Z,5.67
2019-03-03T01:22:59.275Z,5.68
2019-03-03T01:24:11.809Z,5.67
2019-03-03T01:25:20.008Z,5.69
2019-03-03T01:26:28.069Z,5.67
2019-03-03T01:27:36.426Z,5.66
2019-03-03T01:28:44.779Z,5.66
2019-03-03T01:29:53.290Z,5.66
2019-03-03T01:31:01.086Z,5.66
2019-03-03T01:32:09.474Z,5.66
2019-03-03T01:33:17.447Z,5.64
2019-03-03T01:34:25.465Z,5.65
2019-03-03T01:35:33.307Z,5.65
2019-03-03T01:36:41.252Z,5.65
2019-03-03T01:37:49.587Z,5.60
2019-03-03T01:38:57.803Z,5.61
2019-03-03T01:40:12.084Z,5.61
2019-03-03T01:41:20.188Z,5.61
2019-03-03T01:42:28.687Z,5.62
2019-03-03T01:43:36.752Z,5.63
2019-03-03T01:44:45.177Z,5.64
2019-03-03T01:45:53.349Z,5.64
2019-03-03T01:47:01.720Z,5.63
2019-03-03T01:48:09.799Z,5.63
2019-03-03T01:49:17.995Z,5.64
2019-03-03T01:50:26.091Z,5.66
2019-03-03T01:51:34.303Z,5.66
2019-03-03T01:52:42.336Z,5.66
2019-03-03T01:53:50.723Z,5.67
2019-03-03T01:54:58.992Z,5.68
2019-03-03T01:56:07.090Z,5.70
2019-03-03T01:57:15.152Z,5.70
2019-03-03T01:58:23.386Z,5.72
2019-03-03T01:59:31.386Z,5.67
2019-03-03T02:00:39.398Z,5.55
2019-03-03T02:01:47.639Z,5.49
2019-03-03T02:02:57.547Z,5.36
2019-03-03T02:04:05.561Z,5.23
2019-03-03T02:05:13.575Z,5.15
2019-03-03T02:06:21.539Z,5.12
2019-03-03T02:07:29.499Z,5.13
2019-03-03T02:08:37.795Z,5.17
2019-03-03T02:09:46.245Z,5.22
2019-03-03T02:10:54.822Z,5.27
2019-03-03T02:12:03.009Z,5.31
2019-03-03T02:13:11.205Z,5.35
2019-03-03T02:14:20.327Z,5.35
2019-03-03T02:15:28.422Z,5.36
2019-03-03T02:16:36.522Z,5.39
2019-03-03T02:17:45.030Z,5.40
2019-03-03T02:18:53.665Z,5.42
2019-03-03T02:20:02.240Z,5.43
2019-03-03T02:21:10.277Z,5.45
2019-03-03T02:22:18.844Z,5.47
2019-03-03T02:23:27.047Z,5.47
2019-03-03T02:24:35.294Z,5.49
2019-03-03T02:25:43.649Z,5.53
2019-03-03T02:26:52.525Z,5.54
2019-03-03T02:28:00.561Z,5.58
2019-03-03T02:29:08.601Z,5.61
2019-03-03T02:30:20.379Z,5.61
2019-03-03T02:31:28.567Z,5.60
2019-03-03T02:32:37.396Z,5.60
2019-03-03T02:33:45.883Z,5.61
2019-03-03T02:34:54.146Z,5.63
2019-03-03T02:36:02.630Z,5.65
2019-03-03T02:37:10.771Z,5.65
2019-03-03T02:38:18.619Z,5.64
2019-03-03T02:39:26.995Z,5.65
2019-03-03T02:40:35.057Z,5.66
2019-03-03T02:41:43.031Z,5.68
2019-03-03T02:42:51.246Z,5.68
2019-03-03T02:43:59.500Z,5.69
2019-03-03T02:45:11.439Z,5.69
2019-03-03T02:46:19.564Z,5.71
2019-03-03T02:47:27.674Z,5.70
2019-03-03T02:48:35.533Z,5.70
2019-03-03T02:49:44.130Z,5.70
2019-03-03T02:50:53.491Z,5.72
2019-03-03T02:52:01.976Z,5.73
2019-03-03T02:53:10.412Z,5.75
2019-03-03T02:54:18.525Z,5.76
2019-03-03T02:55:26.523Z,5.77
2019-03-03T02:56:34.567Z,5.77
2019-03-03T02:57:42.666Z,5.77
2019-03-03T02:58:51.061Z,5.75
2019-03-03T02:59:59.164Z,5.76
2019-03-03T03:01:09.018Z,5.77
2019-03-03T03:02:18.832Z,5.76
2019-03-03T03:03:26.935Z,5.78
2019-03-03T03:04:35.313Z,5.74
2019-03-03T03:05:46.141Z,5.73
2019-03-03T03:06:56.044Z,5.72
2019-03-03T03:08:05.998Z,5.73
2019-03-03T03:09:21.651Z,5.70
2019-03-03T03:10:37.035Z,5.68
2019-03-03T03:11:55.721Z,5.67
2019-03-03T03:13:05.414Z,5.66
2019-03-03T03:14:15.954Z,5.68
2019-03-03T03:15:42.130Z,5.68
2019-03-03T03:16:54.785Z,5.70
2019-03-03T03:18:04.415Z,5.72
2019-03-03T03:19:19.978Z,5.74
2019-03-03T03:20:32.545Z,5.75
2019-03-03T03:21:47.853Z,5.76
2019-03-03T03:23:00.569Z,5.73
2019-03-03T03:24:19.256Z,5.71
2019-03-03T03:25:45.158Z,5.70
2019-03-03T03:27:01.004Z,5.70
2019-03-03T03:28:19.648Z,5.69
2019-03-03T03:29:29.382Z,5.70
2019-03-03T03:30:41.576Z,5.68
2019-03-03T03:31:54.386Z,5.68
2019-03-03T03:33:07.344Z,5.69
2019-03-03T03:34:17.073Z,5.69
2019-03-03T03:35:36.070Z,5.68
2019-03-03T03:36:54.869Z,5.69
2019-03-03T03:38:04.933Z,5.69
2019-03-03T03:39:26.697Z,5.65
2019-03-03T03:40:42.353Z,5.67
2019-03-03T03:41:57.931Z,5.68
2019-03-03T03:43:13.271Z,5.67
2019-03-03T03:44:22.873Z,5.68
2019-03-03T03:45:32.770Z,5.67
2019-03-03T03:46:48.617Z,5.68
2019-03-03T03:48:14.337Z,5.68
2019-03-03T03:49:36.669Z,5.69
2019-03-03T03:50:55.764Z,5.70
2019-03-03T03:52:09.036Z,5.71
2019-03-03T03:53:30.127Z,5.68
2019-03-03T03:54:55.356Z,5.68
2019-03-03T03:56:04.099Z,5.67
2019-03-03T03:57:14.993Z,5.68
2019-03-03T03:58:24.610Z,5.63
2019-03-03T03:59:34.334Z,5.60
2019-03-03T04:00:54.387Z,5.60
2019-03-03T04:02:16.636Z,5.61
2019-03-03T04:03:24.828Z,5.59
2019-03-03T04:04:34.462Z,5.59
2019-03-03T04:05:47.117Z,5.62
2019-03-03T04:07:15.132Z,5.63
2019-03-03T04:08:27.619Z,5.64
2019-03-03T04:09:37.401Z,5.67
2019-03-03T04:10:59.695Z,5.69
2019-03-03T04:12:09.368Z,5.72
2019-03-03T04:13:21.641Z,5.71
2019-03-03T04:14:46.407Z,5.72
2019-03-03T04:16:11.975Z,5.72
2019-03-03T04:17:34.754Z,5.73
2019-03-03T04:18:51.051Z,5.73
2019-03-03T04:20:06.400Z,5.73
2019-03-03T04:21:21.691Z,5.74
2019-03-03T04:22:34.981Z,5.76
2019-03-03T04:23:55.066Z,5.73
2019-03-03T04:25:04.851Z,5.73
2019-03-03T04:26:26.414Z,5.72
2019-03-03T04:27:36.036Z,5.74
2019-03-03T04:28:57.503Z,5.74
2019-03-03T04:30:17.638Z,5.75
2019-03-03T04:31:33.008Z,5.76
2019-03-03T04:32:43.984Z,5.77
2019-03-03T04:34:06.913Z,5.79
2019-03-03T04:35:16.640Z,5.79
2019-03-03T04:36:42.254Z,5.82
2019-03-03T04:38:08.982Z,5.83
2019-03-03T04:39:24.176Z,5.83
2019-03-03T04:40:45.763Z,5.84
2019-03-03T04:41:55.294Z,5.85
2019-03-03T04:43:17.622Z,5.84
2019-03-03T04:44:27.259Z,5.85
2019-03-03T04:45:37.210Z,5.87
2019-03-03T04:46:46.884Z,5.88
2019-03-03T04:47:56.666Z,5.89
2019-03-03T04:49:06.721Z,5.91
2019-03-03T04:50:32.824Z,5.92
2019-03-03T04:51:45.699Z,5.92
2019-03-03T04:53:08.996Z,5.93
2019-03-03T04:54:18.525Z,5.93
2019-03-03T04:55:44.495Z,5.92
2019-03-03T04:56:54.275Z,5.89
2019-03-03T04:58:06.629Z,5.89
2019-03-03T04:59:22.349Z,5.90
2019-03-03T05:00:39.453Z,5.92
2019-03-03T05:02:04.063Z,5.93
2019-03-03T05:03:20.846Z,5.95
2019-03-03T05:04:36.922Z,5.95
2019-03-03T05:05:55.748Z,5.94
2019-03-03T05:07:06.954Z,5.94
2019-03-03T05:08:25.717Z,5.93
2019-03-03T05:09:35.266Z,5.92
2019-03-03T05:10:52.111Z,5.93
2019-03-03T05:12:27.712Z,5.93
2019-03-03T05:13:40.019Z,5.95
2019-03-03T05:14:48.133Z,5.96
2019-03-03T05:16:04.371Z,5.96
2019-03-03T05:17:17.171Z,5.96
2019-03-03T05:18:26.957Z,5.97
2019-03-03T05:19:34.951Z,5.96
2019-03-03T05:20:47.269Z,5.96
2019-03-03T05:21:55.335Z,5.96
2019-03-03T05:23:03.443Z,5.94
2019-03-03T05:24:11.782Z,5.95
2019-03-03T05:25:19.723Z,5.94
2019-03-03T05:26:27.910Z,5.95
2019-03-03T05:27:36.030Z,5.95
2019-03-03T05:28:44.236Z,5.95
2019-03-03T05:29:52.585Z,5.96
2019-03-03T05:31:00.985Z,5.97
2019-03-03T05:32:09.647Z,5.98
2019-03-03T05:33:17.983Z,5.99
2019-03-03T05:34:26.071Z,6.00
2019-03-03T05:35:34.023Z,6.00
2019-03-03T05:36:42.263Z,6.01
2019-03-03T05:37:50.378Z,5.99
2019-03-03T05:38:58.364Z,5.98
2019-03-03T05:40:10.547Z,5.97
2019-03-03T05:41:18.539Z,5.95
2019-03-03T05:42:26.765Z,5.94
2019-03-03T05:43:34.944Z,5.92
2019-03-03T05:44:43.176Z,5.92
2019-03-03T05:45:51.476Z,5.92
2019-03-03T05:47:00.049Z,5.94
2019-03-03T05:48:08.596Z,5.93
2019-03-03T05:49:16.504Z,5.93
2019-03-03T05:50:24.723Z,5.93
2019-03-03T05:51:33.139Z,5.93
2019-03-03T05:52:41.443Z,5.92
2019-03-03T05:53:49.583Z,5.91
2019-03-03T05:54:57.680Z,5.93
2019-03-03T05:56:05.856Z,5.93
2019-03-03T05:57:14.269Z,5.95
2019-03-03T05:58:22.473Z,5.95
2019-03-03T05:59:30.686Z,5.98
2019-03-03T06:00:38.778Z,6.01
2019-03-03T06:01:47.078Z,6.02
2019-03-03T06:02:55.180Z,6.02
2019-03-03T06:04:03.259Z,6.03
2019-03-03T06:05:11.905Z,6.04
2019-03-03T06:06:20.169Z,6.05
2019-03-03T06:07:28.077Z,6.07
2019-03-03T06:08:36.295Z,6.07
2019-03-03T06:09:44.718Z,6.08
2019-03-03T06:10:53.095Z,6.08
2019-03-03T06:12:01.084Z,6.10
2019-03-03T06:13:09.485Z,6.11
2019-03-03T06:14:17.586Z,6.13
2019-03-03T06:15:25.690Z,6.14
2019-03-03T06:16:34.026Z,6.15
2019-03-03T06:17:42.483Z,6.16
2019-03-03T06:18:50.672Z,6.17
2019-03-03T06:19:58.944Z,6.19
2019-03-03T06:21:07.199Z,6.21
2019-03-03T06:22:15.569Z,6.22
2019-03-03T06:23:23.525Z,6.23
2019-03-03T06:24:31.581Z,6.23
2019-03-03T06:25:40.040Z,6.24
2019-03-03T06:26:48.188Z,6.25
2019-03-03T06:27:56.645Z,6.27
2019-03-03T06:29:04.782Z,6.28
2019-03-03T06:30:16.319Z,6.30
2019-03-03T06:31:25.732Z,6.34
2019-03-03T06:32:33.885Z,6.34
2019-03-03T06:33:42.150Z,6.36
2019-03-03T06:34:50.385Z,6.39
2019-03-03T06:35:58.742Z,6.40
2019-03-03T06:37:06.782Z,6.41
2019-03-03T06:38:15.446Z,6.43
2019-03-03T06:39:23.588Z,6.45
2019-03-03T06:40:31.740Z,6.45
2019-03-03T06:41:40.051Z,6.46
2019-03-03T06:42:48.341Z,6.47
2019-03-03T06:43:56.351Z,6.49
2019-03-03T06:45:06.543Z,6.51
2019-03-03T06:46:15.062Z,6.52
2019-03-03T06:47:22.984Z,6.54
2019-03-03T06:48:33.293Z,6.57
2019-03-03T06:49:41.591Z,6.58
2019-03-03T06:50:49.780Z,6.57
2019-03-03T06:51:58.040Z,6.58
2019-03-03T06:53:06.385Z,6.59
2019-03-03T06:54:15.357Z,6.62
2019-03-03T06:55:23.316Z,6.62
2019-03-03T06:56:31.895Z,6.63
2019-03-03T06:57:40.111Z,6.64
2019-03-03T06:58:48.303Z,6.65
2019-03-03T06:59:56.402Z,6.66
2019-03-03T07:01:04.803Z,6.68
2019-03-03T07:02:13.539Z,6.69
2019-03-03T07:03:21.708Z,6.72
2019-03-03T07:04:31.195Z,6.74
2019-03-03T07:05:39.476Z,6.76
2019-03-03T07:06:47.693Z,6.78
2019-03-03T07:07:56.286Z,6.81
2019-03-03T07:09:05.830Z,6.83
2019-03-03T07:10:15.435Z,6.86
2019-03-03T07:11:23.818Z,6.89
2019-03-03T07:12:32.625Z,6.91
2019-03-03T07:13:40.729Z,6.91
2019-03-03T07:14:49.547Z,6.94
2019-03-03T07:15:57.837Z,6.94
2019-03-03T07:17:05.959Z,6.97
2019-03-03T07:18:14.549Z,6.99
2019-03-03T07:19:22.855Z,7.01
2019-03-03T07:20:31.407Z,7.03
2019-03-03T07:21:39.768Z,7.05
2019-03-03T07:22:47.796Z,7.05
2019-03-03T07:23:55.794Z,7.05
2019-03-03T07:25:05.630Z,7.07
2019-03-03T07:26:14.234Z,7.07
2019-03-03T07:27:22.874Z,7.05
2019-03-03T07:28:30.923Z,7.05
2019-03-03T07:29:39.133Z,7.05
2019-03-03T07:30:47.315Z,7.06
2019-03-03T07:31:55.662Z,7.09
2019-03-03T07:33:03.757Z,7.11
2019-03-03T07:34:11.760Z,7.13
2019-03-03T07:35:19.894Z,7.16
2019-03-03T07:36:28.132Z,7.19
2019-03-03T07:37:36.170Z,7.24
2019-03-03T07:38:45.400Z,7.28
2019-03-03T07:39:53.606Z,7.34
2019-03-03T07:41:01.910Z,7.37
2019-03-03T07:42:09.921Z,7.40
2019-03-03T07:43:19.255Z,7.44
2019-03-03T07:44:27.521Z,7.48
2019-03-03T07:45:35.535Z,7.51
2019-03-03T07:46:44.572Z,7.54
2019-03-03T07:47:52.852Z,7.59
2019-03-03T07:49:02.706Z,7.62
2019-03-03T07:50:10.981Z,7.65
2019-03-03T07:51:19.463Z,7.68
2019-03-03T07:52:27.593Z,7.70
2019-03-03T07:53:35.910Z,7.73
2019-03-03T07:54:44.822Z,7.76
2019-03-03T07:55:53.126Z,7.78
2019-03-03T07:57:01.721Z,7.80
2019-03-03T07:58:10.122Z,7.82
2019-03-03T07:59:18.482Z,7.84
2019-03-03T08:00:27.134Z,7.86
2019-03-03T08:01:35.368Z,7.89
2019-03-03T08:02:43.854Z,7.90
2019-03-03T08:03:52.051Z,7.92
2019-03-03T08:05:00.455Z,7.95
2019-03-03T08:06:09.065Z,7.97
2019-03-03T08:07:17.312Z,7.95
2019-03-03T08:08:25.581Z,7.94
2019-03-03T08:09:36.281Z,7.93
2019-03-03T08:10:44.688Z,7.92
2019-03-03T08:11:52.914Z,7.93
2019-03-03T08:13:08.946Z,7.96
2019-03-03T08:14:11.150Z,7.99
2019-03-03T08:15:20.320Z,8.02
2019-03-03T08:16:28.552Z,8.05
2019-03-03T08:17:36.649Z,8.09
2019-03-03T08:18:45.188Z,8.11
2019-03-03T08:19:53.431Z,8.14
2019-03-03T08:21:01.561Z,8.17
2019-03-03T08:22:09.579Z,8.18
2019-03-03T08:23:17.671Z,8.19
2019-03-03T08:24:26.049Z,8.19
2019-03-03T08:25:34.479Z,8.20
2019-03-03T08:26:42.715Z,8.20
2019-03-03T08:27:51.002Z,8.18
2019-03-03T08:28:59.085Z,8.17
2019-03-03T08:30:18.342Z,8.14
2019-03-03T08:31:26.666Z,8.08
2019-03-03T08:32:35.079Z,8.07
2019-03-03T08:33:44.002Z,8.06
2019-03-03T08:34:52.746Z,8.06
2019-03-03T08:36:01.074Z,8.08
2019-03-03T08:37:09.688Z,8.11
2019-03-03T08:38:18.311Z,8.12
2019-03-03T08:39:27.127Z,8.18
2019-03-03T08:40:35.215Z,8.19
2019-03-03T08:41:45.075Z,8.24
2019-03-03T08:43:04.437Z,8.28
2019-03-03T08:44:14.498Z,8.34
2019-03-03T08:45:41.741Z,8.37
2019-03-03T08:47:07.934Z,8.37
2019-03-03T08:48:18.008Z,8.41
2019-03-03T08:49:28.077Z,8.42
2019-03-03T08:50:37.958Z,8.44
2019-03-03T08:51:50.660Z,8.46
2019-03-03T08:53:02.864Z,8.49
2019-03-03T08:54:12.899Z,8.53
2019-03-03T08:55:33.790Z,8.55
2019-03-03T08:56:47.825Z,8.57
2019-03-03T08:57:57.574Z,8.60
2019-03-03T08:59:07.243Z,8.63
2019-03-03T09:00:19.251Z,8.67
2019-03-03T09:01:28.914Z,8.70
2019-03-03T09:02:38.454Z,8.72
2019-03-03T09:04:04.888Z,8.76
2019-03-03T09:05:23.780Z,8.79
2019-03-03T09:06:46.104Z,8.82
2019-03-03T09:07:56.038Z,8.86
2019-03-03T09:09:06.040Z,8.90
2019-03-03T09:10:25.048Z,8.93
2019-03-03T09:11:30.217Z,8.97
2019-03-03T09:12:43.180Z,8.99
2019-03-03T09:13:53.063Z,9.02
2019-03-03T09:15:09.512Z,9.04
2019-03-03T09:16:17.764Z,9.06
2019-03-03T09:17:43.171Z,9.08
2019-03-03T09:19:11.788Z,9.10
2019-03-03T09:20:23.950Z,9.14
2019-03-03T09:21:32.631Z,9.14
2019-03-03T09:22:46.458Z,9.18
2019-03-03T09:23:56.511Z,9.21
2019-03-03T09:25:20.233Z,9.22
2019-03-03T09:26:46.594Z,9.26
2019-03-03T09:28:14.435Z,9.30
2019-03-03T09:29:33.829Z,9.36
2019-03-03T09:30:59.670Z,9.44
2019-03-03T09:32:25.710Z,9.52
2019-03-03T09:33:44.752Z,9.62
2019-03-03T09:34:54.593Z,9.68
2019-03-03T09:36:07.085Z,9.75
2019-03-03T09:37:16.793Z,9.81
2019-03-03T09:38:43.197Z,9.87
2019-03-03T09:40:09.015Z,9.91
2019-03-03T09:41:15.058Z,9.97
2019-03-03T09:42:28.243Z,10.00
2019-03-03T09:43:42.338Z,10.03
2019-03-03T09:44:52.191Z,10.06
2019-03-03T09:46:14.790Z,10.08
2019-03-03T09:47:28.636Z,10.11
2019-03-03T09:48:54.843Z,10.09
2019-03-03T09:50:10.639Z,10.04
2019-03-03T09:51:18.907Z,10.00
2019-03-03T09:52:45.394Z,9.94
2019-03-03T09:54:07.390Z,9.92
2019-03-03T09:55:32.474Z,9.87
2019-03-03T09:56:42.408Z,9.82
2019-03-03T09:58:01.124Z,9.81
2019-03-03T09:59:14.814Z,9.82
2019-03-03T10:00:27.401Z,9.85
2019-03-03T10:01:53.896Z,9.87
2019-03-03T10:03:03.647Z,9.88
2019-03-03T10:04:16.819Z,9.90
2019-03-03T10:05:27.341Z,9.92
2019-03-03T10:06:53.081Z,9.95
2019-03-03T10:08:10.705Z,9.96
2019-03-03T10:09:38.610Z,9.99
2019-03-03T10:10:48.352Z,10.00
2019-03-03T10:11:58.100Z,9.99
2019-03-03T10:13:06.218Z,10.01
2019-03-03T10:14:23.331Z,10.01
2019-03-03T10:15:33.344Z,10.02
2019-03-03T10:16:43.173Z,10.05
2019-03-03T10:18:01.737Z,10.04
2019-03-03T10:19:18.042Z,10.05
2019-03-03T10:20:31.040Z,10.08
2019-03-03T10:21:43.720Z,10.09
2019-03-03T10:22:59.517Z,10.08
2019-03-03T10:24:09.379Z,10.08
2019-03-03T10:25:19.281Z,10.09
2019-03-03T10:26:29.129Z,10.09
2019-03-03T10:27:38.953Z,10.07
2019-03-03T10:28:57.532Z,10.09
2019-03-03T10:30:20.913Z,10.06
2019-03-03T10:31:30.916Z,10.07
2019-03-03T10:32:57.517Z,10.07
2019-03-03T10:34:05.425Z,10.11
2019-03-03T10:35:16.985Z,10.14
2019-03-03T10:36:29.735Z,10.13
2019-03-03T10:37:48.665Z,10.13
2019-03-03T10:39:11.221Z,10.11
2019-03-03T10:40:19.589Z,10.13
2019-03-03T10:41:36.497Z,10.13
2019-03-03T10:42:52.670Z,10.12
2019-03-03T10:44:05.909Z,10.08
2019-03-03T10:45:21.830Z,10.04
2019-03-03T10:46:41.384Z,10.01
2019-03-03T10:47:51.717Z,10.01
2019-03-03T10:49:04.860Z,10.00
2019-03-03T10:50:20.936Z,10.00
2019-03-03T10:51:36.772Z,10.00
2019-03-03T10:52:46.648Z,9.99
2019-03-03T10:54:05.288Z,9.99
2019-03-03T10:55:14.988Z,10.00
2019-03-03T10:56:24.818Z,9.98
2019-03-03T10:57:41.779Z,9.98
2019-03-03T10:58:54.324Z,9.95
2019-03-03T11:00:16.375Z,9.97
2019-03-03T11:01:29.056Z,9.97
2019-03-03T11:02:39.959Z,9.98
2019-03-03T11:03:49.802Z,9.97
2019-03-03T11:05:15.571Z,9.99
2019-03-03T11:06:25.105Z,9.98
2019-03-03T11:07:43.414Z,9.92
2019-03-03T11:08:58.911Z,9.94
2019-03-03T11:10:27.802Z,9.93
2019-03-03T11:11:37.388Z,9.92
2019-03-03T11:13:05.126Z,9.96
2019-03-03T11:14:24.527Z,9.99
2019-03-03T11:15:40.039Z,10.02
2019-03-03T11:17:00.394Z,10.01
2019-03-03T11:18:10.016Z,9.99
2019-03-03T11:19:22.227Z,10.01
2019-03-03T11:20:44.142Z,10.02
2019-03-03T11:21:56.413Z,10.04
2019-03-03T11:23:04.635Z,10.03
2019-03-03T11:24:31.878Z,10.04
2019-03-03T11:25:41.952Z,10.05
2019-03-03T11:27:07.890Z,10.07
2019-03-03T11:28:24.953Z,10.08
2019-03-03T11:29:41.140Z,10.08
2019-03-03T11:30:51.079Z,10.09
2019-03-03T11:32:07.061Z,10.08
2019-03-03T11:33:19.893Z,10.08
2019-03-03T11:34:33.198Z,10.10
2019-03-03T11:35:43.070Z,10.09
2019-03-03T11:36:59.003Z,10.09
2019-03-03T11:38:27.078Z,10.08
2019-03-03T11:39:49.221Z,10.09
2019-03-03T11:41:08.042Z,10.07
2019-03-03T11:42:34.277Z,10.07
2019-03-03T11:43:56.298Z,10.07
2019-03-03T11:45:22.701Z,10.08
2019-03-03T11:46:49.253Z,10.11
2019-03-03T11:48:04.106Z,10.12
2019-03-03T11:49:14.663Z,10.10
2019-03-03T11:50:24.835Z,10.11
2019-03-03T11:51:50.637Z,10.10
2019-03-03T11:53:03.992Z,10.08
2019-03-03T11:54:14.884Z,10.09
2019-03-03T11:55:24.638Z,10.09
2019-03-03T11:56:32.927Z,10.11
2019-03-03T11:57:43.075Z,10.14
2019-03-03T11:59:09.092Z,10.15
2019-03-03T12:00:22.266Z,10.15
2019-03-03T12:01:39.139Z,10.16
2019-03-03T12:02:54.006Z,10.16
2019-03-03T12:04:17.241Z,10.12
2019-03-03T12:05:37.229Z,10.11
2019-03-03T12:06:46.958Z,10.13
2019-03-03T12:08:03.051Z,10.14
2019-03-03T12:09:13.797Z,10.16
2019-03-03T12:10:34.106Z,10.19
2019-03-03T12:12:00.568Z,10.20
2019-03-03T12:13:20.462Z,10.21
2019-03-03T12:14:30.354Z,10.22
2019-03-03T12:15:41.047Z,10.26
2019-03-03T12:16:50.697Z,10.29
2019-03-03T12:17:58.476Z,10.30
2019-03-03T12:19:08.608Z,10.33
2019-03-03T12:20:24.411Z,10.37
2019-03-03T12:21:46.207Z,10.40
2019-03-03T12:22:59.223Z,10.39
2019-03-03T12:24:09.941Z,10.32
2019-03-03T12:25:17.887Z,10.33
2019-03-03T12:26:33.356Z,10.33
2019-03-03T12:27:52.515Z,10.33
2019-03-03T12:29:00.386Z,10.34
2019-03-03T12:30:29.406Z,10.36
2019-03-03T12:31:45.327Z,10.33
2019-03-03T12:33:05.401Z,10.27
2019-03-03T12:34:14.626Z,10.30
2019-03-03T12:35:24.617Z,10.31
2019-03-03T12:36:40.732Z,10.31
2019-03-03T12:37:50.990Z,10.33
2019-03-03T12:39:06.609Z,10.39
2019-03-03T12:40:32.551Z,10.45
2019-03-03T12:41:42.595Z,10.53
2019-03-03T12:42:52.909Z,10.59
2019-03-03T12:44:18.028Z,10.64
2019-03-03T12:45:33.219Z,10.70
2019-03-03T12:46:46.490Z,10.76
2019-03-03T12:47:54.336Z,10.82
2019-03-03T12:49:07.926Z,10.82
2019-03-03T12:50:20.824Z,10.82
2019-03-03T12:51:37.773Z,10.87
2019-03-03T12:52:59.516Z,10.92
2019-03-03T12:54:13.372Z,11.01
2019-03-03T12:55:26.274Z,11.02
2019-03-03T12:56:42.637Z,11.04
2019-03-03T12:57:52.678Z,11.09
2019-03-03T12:59:17.908Z,11.09
2019-03-03T13:00:27.597Z,11.09
2019-03-03T13:01:53.281Z,11.04
2019-03-03T13:03:19.434Z,11.04
2019-03-03T13:04:29.639Z,11.11
2019-03-03T13:05:45.344Z,11.11
2019-03-03T13:07:13.275Z,11.08
2019-03-03T13:08:22.982Z,11.08
2019-03-03T13:09:37.059Z,11.08
2019-03-03T13:10:46.868Z,11.12
2019-03-03T13:11:56.647Z,11.14
2019-03-03T13:13:15.168Z,11.16
2019-03-03T13:14:40.544Z,11.09
2019-03-03T13:16:07.237Z,11.07
2019-03-03T13:17:35.455Z,11.06
2019-03-03T13:18:48.581Z,11.10
2019-03-03T13:19:58.204Z,11.15
2019-03-03T13:21:10.766Z,11.15
2019-03-03T13:22:30.281Z,11.13
2019-03-03T13:23:40.562Z,11.10
2019-03-03T13:24:49.016Z,11.09
2019-03-03T13:26:18.820Z,11.07
2019-03-03T13:27:28.659Z,11.07
2019-03-03T13:28:38.163Z,11.10
2019-03-03T13:29:48.839Z,11.10
2019-03-03T13:31:05.052Z,11.10
2019-03-03T13:32:26.964Z,11.11
2019-03-03T13:33:43.749Z,11.08
2019-03-03T13:34:57.806Z,11.10
2019-03-03T13:36:11.034Z,11.17
2019-03-03T13:37:20.676Z,11.17
2019-03-03T13:38:30.506Z,11.17
2019-03-03T13:39:55.500Z,11.21
2019-03-03T13:41:05.335Z,11.21
2019-03-03T13:42:31.875Z,11.25
2019-03-03T13:43:40.232Z,11.21
2019-03-03T13:44:48.338Z,11.25
2019-03-03T13:45:57.613Z,11.24
2019-03-03T13:47:06.104Z,11.25
2019-03-03T13:48:14.805Z,11.24
2019-03-03T13:49:22.971Z,11.24
2019-03-03T13:50:31.378Z,11.24
2019-03-03T13:51:39.398Z,11.24
2019-03-03T13:52:47.352Z,11.22
2019-03-03T13:53:55.723Z,11.17
2019-03-03T13:55:03.834Z,11.19
2019-03-03T13:56:12.516Z,11.20
2019-03-03T13:57:20.810Z,11.21
2019-03-03T13:58:29.111Z,11.17
2019-03-03T13:59:37.323Z,11.15
2019-03-03T14:00:45.838Z,11.19
2019-03-03T14:01:53.973Z,11.25
2019-03-03T14:03:02.303Z,11.25
2019-03-03T14:04:12.179Z,11.24
2019-03-03T14:05:22.345Z,11.25
2019-03-03T14:06:30.824Z,11.27
2019-03-03T14:07:39.170Z,11.27
2019-03-03T14:08:47.540Z,11.28
2019-03-03T14:09:55.960Z,11.27
2019-03-03T14:11:04.112Z,11.24
2019-03-03T14:12:12.110Z,11.17
2019-03-03T14:13:20.486Z,11.08
2019-03-03T14:14:28.774Z,10.99
2019-03-03T14:15:37.120Z,10.95
2019-03-03T14:16:45.505Z,10.91
2019-03-03T14:17:53.825Z,10.86
2019-03-03T14:19:01.946Z,10.82
2019-03-03T14:20:24.330Z,10.78
2019-03-03T14:21:33.074Z,10.79
2019-03-03T14:22:41.556Z,10.79
2019-03-03T14:23:49.903Z,10.80
2019-03-03T14:24:57.985Z,10.82
2019-03-03T14:26:06.285Z,10.82
2019-03-03T14:27:14.756Z,10.83
2019-03-03T14:28:23.447Z,10.81
2019-03-03T14:29:31.697Z,10.82
2019-03-03T14:30:39.936Z,10.84
2019-03-03T14:31:48.258Z,10.85
2019-03-03T14:32:57.191Z,10.88
2019-03-03T14:34:06.157Z,10.86
2019-03-03T14:35:16.783Z,10.85
2019-03-03T14:36:24.879Z,10.82
2019-03-03T14:37:33.905Z,10.79
2019-03-03T14:38:42.235Z,10.76
2019-03-03T14:39:50.544Z,10.73
2019-03-03T14:40:58.934Z,10.68
2019-03-03T14:42:07.340Z,10.63
2019-03-03T14:43:15.716Z,10.57
2019-03-03T14:44:24.230Z,10.53
2019-03-03T14:45:33.043Z,10.52
2019-03-03T14:46:41.123Z,10.55
2019-03-03T14:47:49.657Z,10.58
2019-03-03T14:48:58.548Z,10.58
2019-03-03T14:50:14.448Z,10.55
2019-03-03T14:51:22.993Z,10.53
2019-03-03T14:52:30.966Z,10.51
2019-03-03T14:53:38.975Z,10.45
2019-03-03T14:54:47.172Z,10.44
2019-03-03T14:55:55.421Z,10.44
2019-03-03T14:57:03.517Z,10.46
2019-03-03T14:58:11.910Z,10.46
2019-03-03T14:59:20.103Z,10.47
2019-03-03T15:00:34.818Z,10.47
2019-03-03T15:01:43.312Z,10.43
2019-03-03T15:02:51.675Z,10.43
2019-03-03T15:03:59.612Z,10.43
2019-03-03T15:05:07.683Z,10.42
2019-03-03T15:06:24.126Z,10.43
2019-03-03T15:07:25.621Z,10.41
2019-03-03T15:08:33.993Z,10.38
2019-03-03T15:09:42.303Z,10.34
2019-03-03T15:10:50.280Z,10.31
2019-03-03T15:11:58.755Z,10.28
2019-03-03T15:13:06.815Z,10.27
2019-03-03T15:14:14.886Z,10.26
2019-03-03T15:15:30.437Z,10.26
2019-03-03T15:16:38.378Z,10.27
2019-03-03T15:17:47.162Z,10.28
2019-03-03T15:18:55.539Z,10.27
2019-03-03T15:20:03.813Z,10.26
2019-03-03T15:21:12.079Z,10.25
2019-03-03T15:22:20.378Z,10.23
2019-03-03T15:23:28.301Z,10.22
2019-03-03T15:24:36.676Z,10.21
2019-03-03T15:25:44.716Z,10.22
2019-03-03T15:26:52.962Z,10.21
2019-03-03T15:28:01.070Z,10.20
2019-03-03T15:29:09.499Z,10.21
2019-03-03T15:30:21.347Z,10.24
2019-03-03T15:31:37.477Z,10.24
2019-03-03T15:32:39.982Z,10.22
2019-03-03T15:33:48.126Z,10.19
2019-03-03T15:34:56.348Z,10.18
2019-03-03T15:36:04.886Z,10.20
2019-03-03T15:37:13.862Z,10.17
2019-03-03T15:38:22.129Z,10.16
2019-03-03T15:39:30.861Z,10.17
2019-03-03T15:40:39.472Z,10.18
2019-03-03T15:41:47.670Z,10.11
2019-03-03T15:42:56.160Z,10.11
2019-03-03T15:44:05.522Z,10.13
2019-03-03T15:45:23.150Z,10.11
2019-03-03T15:46:31.189Z,10.09
2019-03-03T15:47:39.905Z,10.06